createdAt,value
2018-10-01T00:00:41.820Z,2.63
2018-10-01T00:03:10.906Z,2.80
2018-10-01T00:05:39.938Z,2.70
2018-10-01T00:08:08.889Z,2.90
2018-10-01T00:10:37.922Z,2.87
2018-10-01T00:13:07.033Z,3.03
2018-10-01T00:15:36.101Z,2.80
2018-10-01T00:18:05.071Z,2.70
2018-10-01T00:20:39.386Z,2.87
2018-10-01T00:23:08.344Z,2.80
2018-10-01T00:25:37.293Z,2.90
2018-10-01T00:28:06.241Z,2.80
2018-10-01T00:30:35.201Z,3.00
2018-10-01T00:33:04.182Z,3.27
2018-10-01T00:35:33.157Z,2.90
2018-10-01T00:38:02.127Z,3.40
2018-10-01T00:40:31.082Z,2.90
2018-10-01T00:43:00.368Z,2.70
2018-10-01T00:45:29.356Z,2.73
2018-10-01T00:47:58.306Z,3.43
2018-10-01T00:50:27.274Z,2.67
2018-10-01T00:52:56.231Z,2.80
2018-10-01T00:55:25.294Z,3.13
2018-10-01T00:57:54.226Z,2.80
2018-10-01T01:00:23.239Z,2.77
2018-10-01T01:02:52.190Z,3.10
2018-10-01T01:05:21.157Z,3.03
2018-10-01T01:07:50.110Z,3.17
2018-10-01T01:10:19.081Z,3.20
2018-10-01T01:12:48.054Z,3.17
2018-10-01T01:15:17.022Z,2.77
2018-10-01T01:17:45.973Z,3.37
2018-10-01T01:20:14.981Z,3.23
2018-10-01T01:22:43.942Z,3.00
2018-10-01T01:25:13.139Z,3.10
2018-10-01T01:27:42.087Z,3.10
2018-10-01T01:30:11.058Z,3.10
2018-10-01T01:32:39.998Z,2.87
2018-10-01T01:35:08.977Z,3.40
2018-10-01T01:37:37.922Z,3.27
2018-10-01T01:40:06.906Z,3.20
2018-10-01T01:42:35.858Z,3.40
2018-10-01T01:45:04.905Z,3.23
2018-10-01T01:47:33.889Z,3.10
2018-10-01T01:50:02.901Z,3.60
2018-10-01T01:52:31.859Z,3.60
2018-10-01T01:55:00.814Z,3.03
2018-10-01T01:57:29.766Z,3.53
2018-10-01T01:59:58.750Z,3.43
2018-10-01T02:02:27.681Z,3.33
2018-10-01T02:04:56.669Z,3.13
2018-10-01T02:07:25.618Z,3.60
2018-10-01T02:09:54.585Z,3.43
2018-10-01T02:12:23.682Z,3.33
2018-10-01T02:14:52.777Z,3.43
2018-10-01T02:17:21.730Z,3.50
2018-10-01T02:19:50.706Z,3.10
2018-10-01T02:22:19.653Z,3.40
2018-10-01T02:24:48.621Z,2.97
2018-10-01T02:27:17.701Z,3.73
2018-10-01T02:29:46.654Z,3.70
2018-10-01T02:32:15.646Z,3.80
2018-10-01T02:34:44.599Z,3.90
2018-10-01T02:37:13.570Z,3.40
2018-10-01T02:39:42.552Z,4.23
2018-10-01T02:42:11.526Z,3.73
2018-10-01T02:44:40.476Z,3.70
2018-10-01T02:47:09.431Z,3.60
2018-10-01T02:49:38.437Z,3.70
2018-10-01T02:52:12.913Z,3.63
2018-10-01T02:54:41.906Z,3.57
2018-10-01T02:57:10.850Z,4.10
2018-10-01T02:59:39.806Z,4.20
2018-10-01T03:02:08.890Z,3.90
2018-10-01T03:04:37.825Z,3.60
2018-10-01T03:07:06.835Z,3.70
2018-10-01T03:09:35.783Z,4.07
2018-10-01T03:12:04.750Z,3.87
2018-10-01T03:14:33.697Z,3.63
2018-10-01T03:17:02.682Z,3.83
2018-10-01T03:19:31.677Z,3.30
2018-10-01T03:22:00.677Z,4.03
2018-10-01T03:24:29.615Z,3.63
2018-10-01T03:26:58.577Z,3.40
2018-10-01T03:29:27.526Z,3.53
2018-10-01T03:31:56.494Z,3.77
2018-10-01T03:34:25.438Z,3.83
2018-10-01T03:36:54.383Z,3.63
2018-10-01T03:39:23.446Z,3.67
2018-10-01T03:41:52.426Z,3.50
2018-10-01T03:44:21.376Z,3.53
2018-10-01T03:46:50.337Z,3.53
2018-10-01T03:49:19.282Z,3.70
2018-10-01T03:51:48.254Z,3.60
2018-10-01T03:54:17.317Z,3.63
2018-10-01T03:56:46.263Z,3.37
2018-10-01T03:59:15.203Z,3.60
2018-10-01T04:01:44.218Z,3.73
2018-10-01T04:04:13.157Z,3.73
2018-10-01T04:06:42.126Z,3.90
2018-10-01T04:09:11.182Z,3.90
2018-10-01T04:11:40.267Z,3.87
2018-10-01T04:14:09.391Z,4.07
2018-10-01T04:16:38.350Z,3.90
2018-10-01T04:19:07.318Z,4.37
2018-10-01T04:21:36.308Z,4.10
2018-10-01T04:24:05.259Z,4.30
2018-10-01T04:26:34.211Z,3.73
2018-10-01T04:29:03.172Z,4.23
2018-10-01T04:31:32.168Z,4.73
2018-10-01T04:34:01.117Z,4.77
2018-10-01T04:36:30.169Z,5.10
2018-10-01T04:38:59.117Z,5.20
2018-10-01T04:41:28.083Z,4.97
2018-10-01T04:43:57.037Z,4.90
2018-10-01T04:46:25.990Z,4.93
2018-10-01T04:48:54.937Z,4.67
2018-10-01T04:51:23.953Z,4.47
2018-10-01T04:53:52.928Z,5.10
2018-10-01T04:56:21.861Z,5.23
2018-10-01T04:58:50.818Z,5.47
2018-10-01T05:01:19.774Z,5.80
2018-10-01T05:03:48.790Z,5.33
2018-10-01T05:06:17.803Z,5.20
2018-10-01T05:08:46.701Z,5.57
2018-10-01T05:11:15.681Z,5.40
2018-10-01T05:13:44.638Z,6.23
2018-10-01T05:16:13.605Z,6.50
2018-10-01T05:18:42.575Z,6.60
2018-10-01T05:21:11.522Z,7.17
2018-10-01T05:23:40.511Z,7.27
2018-10-01T05:26:09.477Z,7.47
2018-10-01T05:28:38.460Z,7.33
2018-10-01T05:31:07.498Z,8.03
2018-10-01T05:33:36.457Z,8.17
2018-10-01T05:36:05.413Z,8.70
2018-10-01T05:38:34.381Z,8.53
2018-10-01T05:41:03.332Z,9.40
2018-10-01T05:43:32.322Z,9.83
2018-10-01T05:46:01.284Z,10.50
2018-10-01T05:48:30.266Z,10.67
2018-10-01T05:50:59.225Z,9.87
2018-10-01T05:53:28.350Z,10.07
2018-10-01T05:55:57.373Z,11.03
2018-10-01T05:58:26.390Z,10.63
2018-10-01T06:00:55.398Z,10.30
2018-10-01T06:03:24.363Z,10.13
2018-10-01T06:05:53.341Z,10.13
2018-10-01T06:08:22.334Z,10.00
2018-10-01T06:10:51.329Z,11.17
2018-10-01T06:13:20.373Z,11.43
2018-10-01T06:15:49.337Z,10.47
2018-10-01T06:18:18.352Z,11.33
2018-10-01T06:20:47.308Z,11.03
2018-10-01T06:23:16.282Z,11.50
2018-10-01T06:25:45.403Z,11.40
2018-10-01T06:28:14.359Z,11.30
2018-10-01T06:30:43.337Z,11.83
2018-10-01T06:33:12.378Z,11.27
2018-10-01T06:35:41.326Z,9.83
2018-10-01T06:38:10.636Z,10.33
2018-10-01T06:40:39.622Z,10.30
2018-10-01T06:43:08.599Z,10.07
2018-10-01T06:45:37.577Z,9.73
2018-10-01T06:48:06.585Z,9.57
2018-10-01T06:50:35.557Z,10.00
2018-10-01T06:53:04.538Z,9.70
2018-10-01T06:55:33.541Z,9.83
2018-10-01T06:58:02.549Z,9.53
2018-10-01T07:00:31.617Z,10.10
2018-10-01T07:03:00.595Z,10.37
2018-10-01T07:05:29.703Z,9.83
2018-10-01T07:07:58.625Z,10.27
2018-10-01T07:10:27.605Z,10.90
2018-10-01T07:12:56.592Z,10.63
2018-10-01T07:15:25.643Z,10.63
2018-10-01T07:17:54.594Z,11.10
2018-10-01T07:20:23.638Z,10.97
2018-10-01T07:22:52.717Z,11.50
2018-10-01T07:25:21.707Z,11.80
2018-10-01T07:27:50.762Z,11.50
2018-10-01T07:30:19.750Z,11.10
2018-10-01T07:32:48.731Z,11.17
2018-10-01T07:35:17.701Z,11.77
2018-10-01T07:37:46.667Z,12.23
2018-10-01T07:40:15.746Z,12.73
2018-10-01T07:42:44.726Z,12.80
2018-10-01T07:45:13.874Z,13.67
2018-10-01T07:47:42.762Z,14.47
2018-10-01T07:50:11.786Z,14.73
2018-10-01T07:52:40.814Z,14.37
2018-10-01T07:55:09.837Z,14.03
2018-10-01T07:57:38.844Z,14.80
2018-10-01T08:00:08.249Z,15.77
2018-10-01T08:02:36.986Z,17.40
2018-10-01T08:05:06.070Z,17.07
2018-10-01T08:07:35.100Z,16.73
2018-10-01T08:10:04.098Z,16.73
2018-10-01T08:12:33.198Z,17.43
2018-10-01T08:15:02.179Z,18.43
2018-10-01T08:17:31.216Z,19.30
2018-10-01T08:20:00.327Z,18.73
2018-10-01T08:22:29.248Z,18.80
2018-10-01T08:24:58.226Z,17.80
2018-10-01T08:27:27.242Z,17.07
2018-10-01T08:29:56.390Z,17.63
2018-10-01T08:32:25.278Z,18.27
2018-10-01T08:34:54.283Z,17.43
2018-10-01T08:37:23.323Z,16.73
2018-10-01T08:39:52.314Z,16.00
2018-10-01T08:42:21.317Z,17.30
2018-10-01T08:44:50.408Z,18.00
2018-10-01T08:47:19.541Z,17.00
2018-10-01T08:50:04.470Z,16.97
2018-10-01T08:52:41.853Z,15.70
2018-10-01T08:55:10.876Z,17.47
2018-10-01T08:57:39.862Z,15.50
2018-10-01T09:00:08.841Z,15.77
2018-10-01T09:02:37.942Z,15.73
2018-10-01T09:05:06.991Z,15.30
2018-10-01T09:07:36.191Z,15.93
2018-10-01T09:10:05.226Z,15.17
2018-10-01T09:12:34.251Z,15.27
2018-10-01T09:15:03.401Z,15.70
2018-10-01T09:17:32.381Z,16.03
2018-10-01T09:20:01.434Z,15.20
2018-10-01T09:22:30.422Z,15.37
2018-10-01T09:24:59.441Z,12.17
2018-10-01T09:27:28.521Z,12.70
2018-10-01T09:29:57.516Z,10.80
2018-10-01T09:32:26.559Z,9.10
2018-10-01T09:34:55.532Z,9.50
2018-10-01T09:37:24.483Z,9.43
2018-10-01T09:39:53.617Z,9.30
2018-10-01T09:42:22.672Z,8.90
2018-10-01T09:44:51.690Z,9.07
2018-10-01T09:47:20.817Z,9.17
2018-10-01T09:49:49.826Z,8.70
2018-10-01T09:52:18.837Z,8.03
2018-10-01T09:54:47.966Z,8.00
2018-10-01T09:57:17.336Z,8.60
2018-10-01T09:59:46.308Z,7.57
2018-10-01T10:02:15.338Z,7.60
2018-10-01T10:04:44.365Z,7.50
2018-10-01T10:07:13.337Z,7.20
2018-10-01T10:09:42.305Z,6.63
2018-10-01T10:12:11.281Z,6.70
2018-10-01T10:14:40.318Z,6.07
2018-10-01T10:17:09.307Z,5.40
2018-10-01T10:19:38.270Z,4.83
2018-10-01T10:22:07.290Z,4.47
2018-10-01T10:24:36.225Z,4.43
2018-10-01T10:27:05.324Z,4.03
2018-10-01T10:29:34.241Z,4.23
2018-10-01T10:32:03.257Z,4.00
2018-10-01T10:34:32.293Z,4.73
2018-10-01T10:37:01.254Z,4.50
2018-10-01T10:39:30.229Z,5.43
2018-10-01T10:41:59.257Z,5.10
2018-10-01T10:44:28.245Z,5.20
2018-10-01T10:46:57.229Z,5.23
2018-10-01T10:49:26.222Z,5.53
2018-10-01T10:51:55.261Z,5.73
2018-10-01T10:54:24.386Z,5.30
2018-10-01T10:56:53.432Z,5.20
2018-10-01T10:59:22.404Z,4.83
2018-10-01T11:01:51.395Z,4.23
2018-10-01T11:04:20.433Z,5.03
2018-10-01T11:06:49.449Z,4.47
2018-10-01T11:09:18.482Z,4.50
2018-10-01T11:11:47.474Z,4.23
2018-10-01T11:14:16.782Z,4.87
2018-10-01T11:16:45.652Z,4.43
2018-10-01T11:19:14.786Z,4.77
2018-10-01T11:21:43.841Z,4.43
2018-10-01T11:24:12.645Z,5.30
2018-10-01T11:26:41.675Z,4.30
2018-10-01T11:29:10.644Z,4.60
2018-10-01T11:31:39.668Z,4.30
2018-10-01T11:34:08.618Z,4.00
2018-10-01T11:36:37.609Z,3.60
2018-10-01T11:39:10.763Z,4.30
2018-10-01T11:41:39.669Z,4.40
2018-10-01T11:44:08.784Z,4.30
2018-10-01T11:46:37.849Z,3.90
2018-10-01T11:49:13.217Z,3.43
2018-10-01T11:51:42.324Z,3.70
2018-10-01T11:54:11.249Z,4.03
2018-10-01T11:56:40.200Z,4.70
2018-10-01T11:59:09.241Z,5.33
2018-10-01T12:01:38.234Z,4.80
2018-10-01T12:04:07.601Z,4.20
2018-10-01T12:06:36.473Z,4.17
2018-10-01T12:09:08.390Z,4.20
2018-10-01T12:11:37.315Z,4.33
2018-10-01T12:14:06.335Z,4.20
2018-10-01T12:16:35.309Z,3.80
2018-10-01T12:19:04.268Z,4.37
2018-10-01T12:21:33.273Z,4.70
2018-10-01T12:24:02.249Z,4.27
2018-10-01T12:26:31.231Z,3.97
2018-10-01T12:29:00.249Z,4.10
2018-10-01T12:31:29.258Z,3.90
2018-10-01T12:33:58.289Z,3.60
2018-10-01T12:36:27.289Z,3.80
2018-10-01T12:38:56.394Z,3.23
2018-10-01T12:41:25.365Z,3.33
2018-10-01T12:43:54.350Z,2.63
2018-10-01T12:46:23.397Z,2.77
2018-10-01T12:48:52.387Z,2.90
2018-10-01T12:51:21.457Z,2.87
2018-10-01T12:53:50.345Z,2.80
2018-10-01T12:56:19.526Z,2.97
2018-10-01T12:58:48.522Z,2.90
2018-10-01T13:01:17.520Z,2.60
2018-10-01T13:03:46.497Z,2.60
2018-10-01T13:06:15.475Z,2.50
2018-10-01T13:08:44.456Z,2.80
2018-10-01T13:11:13.617Z,2.63
2018-10-01T13:13:42.603Z,2.57
2018-10-01T13:16:11.579Z,2.30
2018-10-01T13:18:40.635Z,2.30
2018-10-01T13:21:09.541Z,2.30
2018-10-01T13:23:38.545Z,2.20
2018-10-01T13:26:07.542Z,1.83
2018-10-01T13:28:36.529Z,2.30
2018-10-01T13:31:05.546Z,2.17
2018-10-01T13:33:34.535Z,2.23
2018-10-01T13:36:03.686Z,2.50
2018-10-01T13:38:32.838Z,2.27
2018-10-01T13:41:01.875Z,2.30
2018-10-01T13:43:30.854Z,2.20
2018-10-01T13:45:59.839Z,3.87
2018-10-01T13:48:28.915Z,2.43
2018-10-01T13:51:00.866Z,2.93
2018-10-01T13:53:29.840Z,2.80
2018-10-01T13:55:58.855Z,2.37
2018-10-01T13:58:28.007Z,2.40
2018-10-01T14:00:56.983Z,3.37
2018-10-01T14:03:26.029Z,3.20
2018-10-01T14:05:54.997Z,4.30
2018-10-01T14:08:24.070Z,2.50
2018-10-01T14:10:53.042Z,2.00
2018-10-01T14:13:22.265Z,1.83
2018-10-01T14:15:51.107Z,2.00
2018-10-01T14:18:20.335Z,2.00
2018-10-01T14:20:49.337Z,2.10
2018-10-01T14:23:18.375Z,1.90
2018-10-01T14:25:47.341Z,1.90
2018-10-01T14:28:16.861Z,1.87
2018-10-01T14:30:45.923Z,2.00
2018-10-01T14:33:14.921Z,1.90
2018-10-01T14:35:43.889Z,1.90
2018-10-01T14:38:12.857Z,2.00
2018-10-01T14:40:41.866Z,1.90
2018-10-01T14:43:10.873Z,1.93
2018-10-01T14:45:39.818Z,1.90
2018-10-01T14:48:09.124Z,2.20
2018-10-01T14:50:38.093Z,2.00
2018-10-01T14:53:07.153Z,2.60
2018-10-01T14:55:36.229Z,2.00
2018-10-01T14:58:05.287Z,2.10
2018-10-01T15:00:34.341Z,2.13
2018-10-01T15:03:03.337Z,3.13
2018-10-01T15:05:32.313Z,2.57
2018-10-01T15:08:01.307Z,2.67
2018-10-01T15:10:30.286Z,2.33
2018-10-01T15:12:59.353Z,2.00
2018-10-01T15:15:28.337Z,2.03
2018-10-01T15:17:57.347Z,2.00
2018-10-01T15:20:26.293Z,1.93
2018-10-01T15:22:55.317Z,2.23
2018-10-01T15:25:24.314Z,2.07
2018-10-01T15:27:53.305Z,2.10
2018-10-01T15:30:22.632Z,2.00
2018-10-01T15:32:51.698Z,2.43
2018-10-01T15:35:20.953Z,2.30
2018-10-01T15:37:49.909Z,2.10
2018-10-01T15:40:18.989Z,2.00
2018-10-01T15:42:48.013Z,2.07
2018-10-01T15:45:17.002Z,2.23
2018-10-01T15:47:45.973Z,2.13
2018-10-01T15:50:15.058Z,2.10
2018-10-01T15:52:44.010Z,2.30
2018-10-01T15:55:13.022Z,2.30
2018-10-01T15:57:42.106Z,2.00
2018-10-01T16:00:11.094Z,2.10
2018-10-01T16:02:40.185Z,2.00
2018-10-01T16:05:09.160Z,3.80
2018-10-01T16:07:38.124Z,3.00
2018-10-01T16:10:07.108Z,2.83
2018-10-01T16:12:36.070Z,2.70
2018-10-01T16:15:05.295Z,6.13
2018-10-01T16:17:34.294Z,3.30
2018-10-01T16:20:03.280Z,2.30
2018-10-01T16:22:32.285Z,2.60
2018-10-01T16:25:01.263Z,2.50
2018-10-01T16:27:30.229Z,3.10
2018-10-01T16:29:59.282Z,12.23
2018-10-01T16:32:28.306Z,4.30
2018-10-01T16:34:57.274Z,2.80
2018-10-01T16:37:26.242Z,2.60
2018-10-01T16:39:55.302Z,2.40
2018-10-01T16:42:24.478Z,2.50
2018-10-01T16:44:53.360Z,2.30
2018-10-01T16:47:22.330Z,2.50
2018-10-01T16:49:51.309Z,2.43
2018-10-01T16:52:20.324Z,2.43
2018-10-01T16:54:49.274Z,2.60
2018-10-01T16:57:18.261Z,2.60
2018-10-01T16:59:47.274Z,2.60
2018-10-01T17:02:16.290Z,2.50
2018-10-01T17:04:45.397Z,2.40
2018-10-01T17:07:14.384Z,2.30
2018-10-01T17:09:43.362Z,2.40
2018-10-01T17:12:12.397Z,2.30
2018-10-01T17:14:41.447Z,2.50
2018-10-01T17:17:10.422Z,2.50
2018-10-01T17:19:39.539Z,2.87
2018-10-01T17:22:08.518Z,4.60
2018-10-01T17:24:37.659Z,4.50
2018-10-01T17:27:06.810Z,4.07
2018-10-01T17:29:35.886Z,4.23
2018-10-01T17:32:04.899Z,3.80
2018-10-01T17:34:33.879Z,4.23
2018-10-01T17:37:03.345Z,3.80
2018-10-01T17:39:32.312Z,3.70
2018-10-01T17:42:01.269Z,3.30
2018-10-01T17:44:30.247Z,3.40
2018-10-01T17:46:59.399Z,3.17
2018-10-01T17:49:28.380Z,3.10
2018-10-01T17:51:57.354Z,3.47
2018-10-01T17:54:26.923Z,3.73
2018-10-01T17:56:55.866Z,3.90
2018-10-01T17:59:24.829Z,3.50
2018-10-01T18:01:53.811Z,3.20
2018-10-01T18:04:23.931Z,16.67
2018-10-01T18:06:53.276Z,11.03
2018-10-01T18:09:22.241Z,4.03
2018-10-01T18:11:51.405Z,3.13
2018-10-01T18:14:20.318Z,2.80
2018-10-01T18:16:49.406Z,3.27
2018-10-01T18:19:18.614Z,3.10
2018-10-01T18:21:47.626Z,3.10
2018-10-01T18:24:16.611Z,3.17
2018-10-01T18:26:45.622Z,3.13
2018-10-01T18:29:14.581Z,2.90
2018-10-01T18:31:43.583Z,3.10
2018-10-01T18:34:12.550Z,2.73
2018-10-01T18:36:41.530Z,3.20
2018-10-01T18:39:15.516Z,3.07
2018-10-01T18:41:44.528Z,3.33
2018-10-01T18:44:13.582Z,3.00
2018-10-01T18:46:42.613Z,3.17
2018-10-01T18:49:11.641Z,3.20
2018-10-01T18:51:40.626Z,3.20
2018-10-01T18:54:09.653Z,3.23
2018-10-01T18:56:38.673Z,3.13
2018-10-01T18:59:07.613Z,3.10
2018-10-01T19:01:36.729Z,3.13
2018-10-01T19:04:05.695Z,3.53
2018-10-01T19:06:34.682Z,3.27
2018-10-01T19:09:04.306Z,3.87
2018-10-01T19:11:33.298Z,3.60
2018-10-01T19:14:02.306Z,3.63
2018-10-01T19:16:31.282Z,3.10
2018-10-01T19:19:00.286Z,3.47
2018-10-01T19:21:29.546Z,3.07
2018-10-01T19:23:58.589Z,2.87
2018-10-01T19:26:28.050Z,2.80
2018-10-01T19:28:57.279Z,2.50
2018-10-01T19:31:26.236Z,2.53
2018-10-01T19:33:55.241Z,2.77
2018-10-01T19:36:24.205Z,2.87
2018-10-01T19:38:53.358Z,2.60
2018-10-01T19:41:22.185Z,2.60
2018-10-01T19:43:51.159Z,2.63
2018-10-01T19:46:20.150Z,2.67
2018-10-01T19:48:49.145Z,2.67
2018-10-01T19:51:18.164Z,2.80
2018-10-01T19:53:47.089Z,2.90
2018-10-01T19:56:16.025Z,2.83
2018-10-01T19:58:45.035Z,3.00
2018-10-01T20:01:13.962Z,2.80
2018-10-01T20:03:42.940Z,3.00
2018-10-01T20:06:12.021Z,4.10
2018-10-01T20:08:41.045Z,3.90
2018-10-01T20:11:10.092Z,3.87
2018-10-01T20:13:39.140Z,3.80
2018-10-01T20:16:08.106Z,3.63
2018-10-01T20:18:37.093Z,3.03
2018-10-01T20:21:06.104Z,2.90
2018-10-01T20:23:35.323Z,2.90
2018-10-01T20:26:04.536Z,3.03
2018-10-01T20:28:33.770Z,2.93
2018-10-01T20:31:02.362Z,3.10
2018-10-01T20:33:31.338Z,3.00
2018-10-01T20:36:00.399Z,2.90
2018-10-01T20:38:29.525Z,2.87
2018-10-01T20:40:58.547Z,3.83
2018-10-01T20:43:27.433Z,3.47
2018-10-01T20:45:56.516Z,3.67
2018-10-01T20:48:25.452Z,3.73
2018-10-01T20:50:54.448Z,3.90
2018-10-01T20:53:23.595Z,4.17
2018-10-01T20:55:52.464Z,4.03
2018-10-01T20:58:21.417Z,3.70
2018-10-01T21:00:50.376Z,4.03
2018-10-01T21:03:19.334Z,4.13
2018-10-01T21:05:48.285Z,4.50
2018-10-01T21:08:17.356Z,3.70
2018-10-01T21:10:46.317Z,3.90
2018-10-01T21:13:15.390Z,4.00
2018-10-01T21:15:44.347Z,3.83
2018-10-01T21:18:13.320Z,3.70
2018-10-01T21:20:42.271Z,3.60
2018-10-01T21:23:11.289Z,3.70
2018-10-01T21:25:40.241Z,3.77
2018-10-01T21:28:09.210Z,3.43
2018-10-01T21:30:38.162Z,3.60
2018-10-01T21:33:07.143Z,3.60
2018-10-01T21:35:36.097Z,3.10
2018-10-01T21:38:05.058Z,3.47
2018-10-01T21:40:34.145Z,3.13
2018-10-01T21:43:03.114Z,3.17
2018-10-01T21:45:32.062Z,3.07
2018-10-01T21:48:01.062Z,3.20
2018-10-01T21:50:30.265Z,3.03
2018-10-01T21:52:59.243Z,2.70
2018-10-01T21:55:28.317Z,3.33
2018-10-01T21:57:57.297Z,3.07
2018-10-01T22:00:26.290Z,3.23
2018-10-01T22:02:55.257Z,3.20
2018-10-01T22:05:24.210Z,3.23
2018-10-01T22:07:53.181Z,3.20
2018-10-01T22:10:22.187Z,2.83
2018-10-01T22:12:51.162Z,3.23
2018-10-01T22:15:20.126Z,3.27
2018-10-01T22:17:49.090Z,3.53
2018-10-01T22:20:18.046Z,3.17
2018-10-01T22:22:47.015Z,3.70
2018-10-01T22:25:16.052Z,3.47
2018-10-01T22:27:44.974Z,3.30
2018-10-01T22:30:13.925Z,3.70
2018-10-01T22:32:42.910Z,3.30
2018-10-01T22:35:11.884Z,3.60
2018-10-01T22:37:40.858Z,3.57
2018-10-01T22:40:09.817Z,3.60
2018-10-01T22:42:38.791Z,3.50
2018-10-01T22:45:07.764Z,3.43
2018-10-01T22:47:36.721Z,3.57
2018-10-01T22:50:06.075Z,3.63
2018-10-01T22:52:35.102Z,3.63
2018-10-01T22:55:04.115Z,3.77
2018-10-01T22:57:33.102Z,3.93
2018-10-01T23:00:02.137Z,4.10
2018-10-01T23:02:31.695Z,3.50
2018-10-01T23:05:00.649Z,3.80
2018-10-01T23:07:29.593Z,3.83
2018-10-01T23:09:58.677Z,3.87
2018-10-01T23:12:27.641Z,4.10
2018-10-01T23:14:56.605Z,3.97
2018-10-01T23:17:25.641Z,4.30
2018-10-01T23:19:54.617Z,4.73
2018-10-01T23:22:23.594Z,4.43
2018-10-01T23:24:52.561Z,4.07
2018-10-01T23:27:21.518Z,4.30
2018-10-01T23:29:50.482Z,4.13
2018-10-01T23:32:19.500Z,4.43
2018-10-01T23:34:48.442Z,4.53
2018-10-01T23:37:17.418Z,4.30
2018-10-01T23:39:46.498Z,4.50
2018-10-01T23:42:15.465Z,4.13
2018-10-01T23:44:44.422Z,4.30
2018-10-01T23:47:13.377Z,3.93
2018-10-01T23:49:42.350Z,4.43
2018-10-01T23:52:11.409Z,4.40
2018-10-01T23:54:40.389Z,4.20
2018-10-01T23:57:09.426Z,3.93
2018-10-01T23:59:38.421Z,4.13
